sensor_id;sensor_type;location;lat;lon;timestamp;P1;durP1;ratioP1;P2;durP2;ratioP2
46455;SDS011;64052;47.466;9.094;2023-03-16T00:01:06;4.50;;;4.10;;
46455;SDS011;64052;47.466;9.094;2023-03-16T00:06:08;4.10;;;3.45;;
46455;SDS011;64052;47.466;9.094;2023-03-16T00:11:10;3.00;;;2.80;;
46455;SDS011;64052;47.466;9.094;2023-03-16T00:16:12;3.20;;;2.63;;
46455;SDS011;64052;47.466;9.094;2023-03-16T00:21:13;3.03;;;2.83;;
46455;SDS011;64052;47.466;9.094;2023-03-16T00:26:15;3.75;;;3.45;;
46455;SDS011;64052;47.466;9.094;2023-03-16T00:31:16;4.85;;;3.03;;
46455;SDS011;64052;47.466;9.094;2023-03-16T00:36:18;3.05;;;2.75;;
46455;SDS011;64052;47.466;9.094;2023-03-16T00:41:19;3.25;;;2.95;;
46455;SDS011;64052;47.466;9.094;2023-03-16T00:46:21;3.67;;;3.08;;
46455;SDS011;64052;47.466;9.094;2023-03-16T00:51:22;3.25;;;2.80;;
46455;SDS011;64052;47.466;9.094;2023-03-16T00:56:24;3.25;;;3.05;;
46455;SDS011;64052;47.466;9.094;2023-03-16T01:01:26;2.85;;;2.65;;
46455;SDS011;64052;47.466;9.094;2023-03-16T01:06:28;3.08;;;2.80;;
46455;SDS011;64052;47.466;9.094;2023-03-16T01:11:29;4.43;;;2.85;;
46455;SDS011;64052;47.466;9.094;2023-03-16T01:16:31;2.95;;;2.75;;
46455;SDS011;64052;47.466;9.094;2023-03-16T01:21:32;2.83;;;2.25;;
46455;SDS011;64052;47.466;9.094;2023-03-16T01:26:34;3.40;;;3.03;;
46455;SDS011;64052;47.466;9.094;2023-03-16T01:31:37;6.25;;;2.80;;
46455;SDS011;64052;47.466;9.094;2023-03-16T01:36:40;2.78;;;2.53;;
46455;SDS011;64052;47.466;9.094;2023-03-16T01:41:43;2.35;;;2.15;;
46455;SDS011;64052;47.466;9.094;2023-03-16T01:46:45;2.67;;;2.47;;
46455;SDS011;64052;47.466;9.094;2023-03-16T02:02:23;2.72;;;2.53;;
46455;SDS011;64052;47.466;9.094;2023-03-16T02:07:27;3.75;;;2.80;;
46455;SDS011;64052;47.466;9.094;2023-03-16T02:12:33;3.42;;;2.22;;
46455;SDS011;64052;47.466;9.094;2023-03-16T02:17:36;3.13;;;2.90;;
46455;SDS011;64052;47.466;9.094;2023-03-16T02:22:44;3.58;;;2.22;;
46455;SDS011;64052;47.466;9.094;2023-03-16T02:27:52;2.85;;;2.60;;
46455;SDS011;64052;47.466;9.094;2023-03-16T02:33:08;2.97;;;2.78;;
46455;SDS011;64052;47.466;9.094;2023-03-16T02:38:11;3.10;;;2.83;;
46455;SDS011;64052;47.466;9.094;2023-03-16T02:43:21;3.05;;;2.60;;
46455;SDS011;64052;47.466;9.094;2023-03-16T02:48:45;3.47;;;3.10;;
46455;SDS011;64052;47.466;9.094;2023-03-16T02:53:58;3.10;;;2.80;;
46455;SDS011;64052;47.466;9.094;2023-03-16T02:59:02;3.15;;;2.95;;
46455;SDS011;64052;47.466;9.094;2023-03-16T03:04:05;3.75;;;3.45;;
46455;SDS011;64052;47.466;9.094;2023-03-16T03:09:06;3.10;;;2.90;;
46455;SDS011;64052;47.466;9.094;2023-03-16T03:14:09;5.57;;;3.70;;
46455;SDS011;64052;47.466;9.094;2023-03-16T03:19:13;3.75;;;3.10;;
46455;SDS011;64052;47.466;9.094;2023-03-16T03:24:14;3.30;;;3.00;;
46455;SDS011;64052;47.466;9.094;2023-03-16T03:29:16;5.03;;;3.95;;
46455;SDS011;64052;47.466;9.094;2023-03-16T03:34:18;3.72;;;3.38;;
46455;SDS011;64052;47.466;9.094;2023-03-16T03:39:19;3.65;;;2.92;;
46455;SDS011;64052;47.466;9.094;2023-03-16T03:44:23;2.85;;;2.65;;
46455;SDS011;64052;47.466;9.094;2023-03-16T03:49:25;3.28;;;2.92;;
46455;SDS011;64052;47.466;9.094;2023-03-16T03:54:27;3.00;;;2.80;;
46455;SDS011;64052;47.466;9.094;2023-03-16T03:59:33;3.53;;;3.20;;
46455;SDS011;64052;47.466;9.094;2023-03-16T04:04:55;3.40;;;3.17;;
46455;SDS011;64052;47.466;9.094;2023-03-16T04:09:57;3.05;;;2.85;;
46455;SDS011;64052;47.466;9.094;2023-03-16T04:15:04;3.47;;;3.03;;
46455;SDS011;64052;47.466;9.094;2023-03-16T04:25:18;2.60;;;2.40;;
46455;SDS011;64052;47.466;9.094;2023-03-16T04:30:22;3.75;;;3.50;;
46455;SDS011;64052;47.466;9.094;2023-03-16T04:35:28;3.05;;;2.75;;
46455;SDS011;64052;47.466;9.094;2023-03-16T04:40:30;3.50;;;3.20;;
46455;SDS011;64052;47.466;9.094;2023-03-16T04:45:45;5.72;;;3.15;;
46455;SDS011;64052;47.466;9.094;2023-03-16T04:50:47;3.55;;;3.17;;
46455;SDS011;64052;47.466;9.094;2023-03-16T04:55:50;3.83;;;3.22;;
46455;SDS011;64052;47.466;9.094;2023-03-16T05:00:52;3.78;;;3.47;;
46455;SDS011;64052;47.466;9.094;2023-03-16T05:05:59;3.67;;;3.35;;
46455;SDS011;64052;47.466;9.094;2023-03-16T05:11:03;4.65;;;3.80;;
46455;SDS011;64052;47.466;9.094;2023-03-16T05:16:10;4.80;;;4.38;;
46455;SDS011;64052;47.466;9.094;2023-03-16T05:21:14;4.20;;;3.47;;
46455;SDS011;64052;47.466;9.094;2023-03-16T05:26:25;5.78;;;4.05;;
46455;SDS011;64052;47.466;9.094;2023-03-16T05:31:28;5.00;;;4.57;;
46455;SDS011;64052;47.466;9.094;2023-03-16T05:36:32;6.07;;;4.65;;
46455;SDS011;64052;47.466;9.094;2023-03-16T05:41:39;6.32;;;4.00;;
46455;SDS011;64052;47.466;9.094;2023-03-16T05:46:50;4.30;;;3.78;;
46455;SDS011;64052;47.466;9.094;2023-03-16T05:51:52;4.03;;;3.63;;
46455;SDS011;64052;47.466;9.094;2023-03-16T05:56:55;4.15;;;3.60;;
46455;SDS011;64052;47.466;9.094;2023-03-16T06:01:59;4.97;;;3.60;;
46455;SDS011;64052;47.466;9.094;2023-03-16T06:07:01;3.55;;;3.25;;
46455;SDS011;64052;47.466;9.094;2023-03-16T06:12:04;3.60;;;3.30;;
46455;SDS011;64052;47.466;9.094;2023-03-16T06:17:07;4.60;;;2.97;;
46455;SDS011;64052;47.466;9.094;2023-03-16T06:22:09;4.35;;;3.97;;
46455;SDS011;64052;47.466;9.094;2023-03-16T06:27:11;4.32;;;3.10;;
46455;SDS011;64052;47.466;9.094;2023-03-16T06:32:31;4.05;;;3.70;;
46455;SDS011;64052;47.466;9.094;2023-03-16T06:37:33;4.28;;;3.90;;
46455;SDS011;64052;47.466;9.094;2023-03-16T06:42:42;5.03;;;4.30;;
46455;SDS011;64052;47.466;9.094;2023-03-16T06:47:49;4.75;;;4.28;;
46455;SDS011;64052;47.466;9.094;2023-03-16T06:52:51;5.50;;;3.60;;
46455;SDS011;64052;47.466;9.094;2023-03-16T06:57:53;4.70;;;3.85;;
46455;SDS011;64052;47.466;9.094;2023-03-16T07:02:54;3.95;;;3.47;;
46455;SDS011;64052;47.466;9.094;2023-03-16T07:07:56;5.25;;;3.28;;
46455;SDS011;64052;47.466;9.094;2023-03-16T07:12:58;6.32;;;3.28;;
46455;SDS011;64052;47.466;9.094;2023-03-16T07:17:59;3.65;;;3.35;;
46455;SDS011;64052;47.466;9.094;2023-03-16T07:23:02;3.63;;;3.33;;
46455;SDS011;64052;47.466;9.094;2023-03-16T07:28:03;7.10;;;6.03;;
46455;SDS011;64052;47.466;9.094;2023-03-16T07:33:11;5.00;;;3.67;;
46455;SDS011;64052;47.466;9.094;2023-03-16T07:38:14;4.93;;;3.97;;
46455;SDS011;64052;47.466;9.094;2023-03-16T07:43:15;6.40;;;4.18;;
46455;SDS011;64052;47.466;9.094;2023-03-16T07:48:24;4.33;;;3.23;;
46455;SDS011;64052;47.466;9.094;2023-03-16T07:53:30;3.28;;;2.97;;
46455;SDS011;64052;47.466;9.094;2023-03-16T07:58:50;3.13;;;2.83;;
46455;SDS011;64052;47.466;9.094;2023-03-16T08:03:52;5.20;;;3.38;;
46455;SDS011;64052;47.466;9.094;2023-03-16T08:08:53;3.15;;;2.95;;
46455;SDS011;64052;47.466;9.094;2023-03-16T08:14:05;5.03;;;3.90;;
46455;SDS011;64052;47.466;9.094;2023-03-16T08:19:28;3.83;;;3.53;;
46455;SDS011;64052;47.466;9.094;2023-03-16T08:24:33;7.40;;;3.72;;
46455;SDS011;64052;47.466;9.094;2023-03-16T08:29:36;4.78;;;4.28;;
46455;SDS011;64052;47.466;9.094;2023-03-16T08:34:39;5.72;;;4.00;;
46455;SDS011;64052;47.466;9.094;2023-03-16T08:39:42;4.78;;;3.40;;
46455;SDS011;64052;47.466;9.094;2023-03-16T08:44:48;4.35;;;3.20;;
46455;SDS011;64052;47.466;9.094;2023-03-16T08:49:49;4.45;;;3.10;;
46455;SDS011;64052;47.466;9.094;2023-03-16T08:54:52;5.82;;;2.80;;
46455;SDS011;64052;47.466;9.094;2023-03-16T09:00:04;3.67;;;3.10;;
46455;SDS011;64052;47.466;9.094;2023-03-16T09:05:09;4.97;;;3.65;;
46455;SDS011;64052;47.466;9.094;2023-03-16T09:10:13;4.13;;;3.00;;
46455;SDS011;64052;47.466;9.094;2023-03-16T09:15:14;2.67;;;2.47;;
46455;SDS011;64052;47.466;9.094;2023-03-16T09:20:16;2.95;;;2.75;;
46455;SDS011;64052;47.466;9.094;2023-03-16T09:25:33;3.45;;;2.47;;
46455;SDS011;64052;47.466;9.094;2023-03-16T09:30:35;3.35;;;3.05;;
46455;SDS011;64052;47.466;9.094;2023-03-16T09:35:37;3.00;;;2.55;;
46455;SDS011;64052;47.466;9.094;2023-03-16T09:40:38;3.22;;;2.67;;
46455;SDS011;64052;47.466;9.094;2023-03-16T09:45:43;2.78;;;2.47;;
46455;SDS011;64052;47.466;9.094;2023-03-16T09:50:56;3.55;;;2.78;;
46455;SDS011;64052;47.466;9.094;2023-03-16T09:56:11;3.38;;;2.53;;
46455;SDS011;64052;47.466;9.094;2023-03-16T10:01:25;3.30;;;3.00;;
46455;SDS011;64052;47.466;9.094;2023-03-16T10:06:47;3.17;;;2.80;;
46455;SDS011;64052;47.466;9.094;2023-03-16T10:12:01;2.60;;;2.30;;
46455;SDS011;64052;47.466;9.094;2023-03-16T10:22:21;2.72;;;2.50;;
46455;SDS011;64052;47.466;9.094;2023-03-16T10:27:28;3.30;;;2.10;;
46455;SDS011;64052;47.466;9.094;2023-03-16T10:32:32;2.53;;;2.25;;
46455;SDS011;64052;47.466;9.094;2023-03-16T10:37:34;2.38;;;2.17;;
46455;SDS011;64052;47.466;9.094;2023-03-16T10:42:36;3.10;;;2.13;;
46455;SDS011;64052;47.466;9.094;2023-03-16T10:47:37;3.28;;;2.97;;
46455;SDS011;64052;47.466;9.094;2023-03-16T10:52:39;3.83;;;2.85;;
46455;SDS011;64052;47.466;9.094;2023-03-16T10:57:51;2.78;;;2.17;;
46455;SDS011;64052;47.466;9.094;2023-03-16T11:02:54;3.38;;;2.53;;
46455;SDS011;64052;47.466;9.094;2023-03-16T11:08:05;4.32;;;2.53;;
46455;SDS011;64052;47.466;9.094;2023-03-16T11:13:13;2.47;;;2.28;;
46455;SDS011;64052;47.466;9.094;2023-03-16T11:18:21;3.95;;;2.10;;
46455;SDS011;64052;47.466;9.094;2023-03-16T11:23:32;3.08;;;2.78;;
46455;SDS011;64052;47.466;9.094;2023-03-16T11:28:38;2.97;;;2.20;;
46455;SDS011;64052;47.466;9.094;2023-03-16T11:44:22;2.53;;;2.17;;
46455;SDS011;64052;47.466;9.094;2023-03-16T11:49:38;3.63;;;2.25;;
46455;SDS011;64052;47.466;9.094;2023-03-16T11:55:11;2.88;;;1.90;;
46455;SDS011;64052;47.466;9.094;2023-03-16T12:17:03;2.00;;;1.80;;
46455;SDS011;64052;47.466;9.094;2023-03-16T12:22:20;3.35;;;2.42;;
46455;SDS011;64052;47.466;9.094;2023-03-16T12:27:33;4.03;;;2.42;;
46455;SDS011;64052;47.466;9.094;2023-03-16T12:37:54;3.17;;;1.70;;
46455;SDS011;64052;47.466;9.094;2023-03-16T12:43:08;2.13;;;1.92;;
46455;SDS011;64052;47.466;9.094;2023-03-16T12:48:20;4.05;;;2.47;;
46455;SDS011;64052;47.466;9.094;2023-03-16T12:58:54;3.05;;;2.20;;
46455;SDS011;64052;47.466;9.094;2023-03-16T13:04:04;2.47;;;1.92;;
46455;SDS011;64052;47.466;9.094;2023-03-16T13:09:11;3.00;;;1.92;;
46455;SDS011;64052;47.466;9.094;2023-03-16T13:19:34;3.10;;;1.98;;
46455;SDS011;64052;47.466;9.094;2023-03-16T13:24:37;3.70;;;2.08;;
46455;SDS011;64052;47.466;9.094;2023-03-16T13:29:40;2.25;;;1.90;;
46455;SDS011;64052;47.466;9.094;2023-03-16T13:34:55;4.28;;;2.00;;
46455;SDS011;64052;47.466;9.094;2023-03-16T13:39:59;2.08;;;1.88;;
46455;SDS011;64052;47.466;9.094;2023-03-16T13:45:09;2.33;;;2.08;;
46455;SDS011;64052;47.466;9.094;2023-03-16T13:50:14;2.20;;;2.00;;
46455;SDS011;64052;47.466;9.094;2023-03-16T13:55:17;1.70;;;1.60;;
46455;SDS011;64052;47.466;9.094;2023-03-16T14:00:24;2.38;;;2.10;;
46455;SDS011;64052;47.466;9.094;2023-03-16T14:05:31;4.72;;;2.63;;
46455;SDS011;64052;47.466;9.094;2023-03-16T14:10:34;1.98;;;1.83;;
46455;SDS011;64052;47.466;9.094;2023-03-16T14:15:37;4.05;;;3.65;;
46455;SDS011;64052;47.466;9.094;2023-03-16T14:20:41;2.42;;;2.22;;
46455;SDS011;64052;47.466;9.094;2023-03-16T14:25:43;2.80;;;2.38;;
46455;SDS011;64052;47.466;9.094;2023-03-16T14:30:51;2.63;;;2.20;;
46455;SDS011;64052;47.466;9.094;2023-03-16T14:35:55;3.38;;;2.50;;
46455;SDS011;64052;47.466;9.094;2023-03-16T14:41:03;2.85;;;2.38;;
46455;SDS011;64052;47.466;9.094;2023-03-16T14:46:26;3.92;;;2.35;;
46455;SDS011;64052;47.466;9.094;2023-03-16T14:51:29;4.05;;;2.30;;
46455;SDS011;64052;47.466;9.094;2023-03-16T14:56:34;3.38;;;2.63;;
46455;SDS011;64052;47.466;9.094;2023-03-16T15:01:35;2.55;;;2.30;;
46455;SDS011;64052;47.466;9.094;2023-03-16T15:06:37;2.30;;;1.92;;
46455;SDS011;64052;47.466;9.094;2023-03-16T15:11:38;2.65;;;1.80;;
46455;SDS011;64052;47.466;9.094;2023-03-16T15:16:40;2.20;;;2.00;;
46455;SDS011;64052;47.466;9.094;2023-03-16T15:21:41;3.15;;;1.92;;
46455;SDS011;64052;47.466;9.094;2023-03-16T15:26:43;2.80;;;2.13;;
46455;SDS011;64052;47.466;9.094;2023-03-16T15:31:44;1.90;;;1.80;;
46455;SDS011;64052;47.466;9.094;2023-03-16T15:36:46;2.80;;;2.50;;
46455;SDS011;64052;47.466;9.094;2023-03-16T15:41:48;2.78;;;2.28;;
46455;SDS011;64052;47.466;9.094;2023-03-16T15:46:49;2.67;;;2.30;;
46455;SDS011;64052;47.466;9.094;2023-03-16T15:51:51;2.80;;;2.30;;
46455;SDS011;64052;47.466;9.094;2023-03-16T15:56:52;2.50;;;2.28;;
46455;SDS011;64052;47.466;9.094;2023-03-16T16:01:55;2.45;;;2.05;;
46455;SDS011;64052;47.466;9.094;2023-03-16T16:06:56;2.17;;;1.98;;
46455;SDS011;64052;47.466;9.094;2023-03-16T16:11:58;2.65;;;2.45;;
46455;SDS011;64052;47.466;9.094;2023-03-16T16:16:59;3.58;;;2.72;;
46455;SDS011;64052;47.466;9.094;2023-03-16T16:22:01;2.75;;;2.05;;
46455;SDS011;64052;47.466;9.094;2023-03-16T16:27:02;2.50;;;2.30;;
46455;SDS011;64052;47.466;9.094;2023-03-16T16:32:19;3.10;;;2.45;;
46455;SDS011;64052;47.466;9.094;2023-03-16T16:37:23;3.63;;;2.92;;
46455;SDS011;64052;47.466;9.094;2023-03-16T16:42:24;3.60;;;2.97;;
46455;SDS011;64052;47.466;9.094;2023-03-16T16:47:26;3.60;;;2.78;;
46455;SDS011;64052;47.466;9.094;2023-03-16T16:52:27;4.47;;;2.75;;
46455;SDS011;64052;47.466;9.094;2023-03-16T16:57:29;4.53;;;2.72;;
46455;SDS011;64052;47.466;9.094;2023-03-16T17:02:32;3.25;;;2.97;;
46455;SDS011;64052;47.466;9.094;2023-03-16T17:07:43;3.55;;;3.03;;
46455;SDS011;64052;47.466;9.094;2023-03-16T17:12:45;3.35;;;2.72;;
46455;SDS011;64052;47.466;9.094;2023-03-16T17:17:47;2.75;;;2.47;;
46455;SDS011;64052;47.466;9.094;2023-03-16T17:22:49;3.03;;;2.70;;
46455;SDS011;64052;47.466;9.094;2023-03-16T17:27:53;3.72;;;3.10;;
46455;SDS011;64052;47.466;9.094;2023-03-16T17:32:57;3.25;;;2.92;;
46455;SDS011;64052;47.466;9.094;2023-03-16T17:38:09;3.90;;;3.08;;
46455;SDS011;64052;47.466;9.094;2023-03-16T17:43:18;4.03;;;3.60;;
46455;SDS011;64052;47.466;9.094;2023-03-16T17:48:22;3.92;;;2.95;;
46455;SDS011;64052;47.466;9.094;2023-03-16T17:53:24;3.95;;;3.47;;
46455;SDS011;64052;47.466;9.094;2023-03-16T17:58:26;4.15;;;3.40;;
46455;SDS011;64052;47.466;9.094;2023-03-16T18:03:29;5.68;;;3.25;;
46455;SDS011;64052;47.466;9.094;2023-03-16T18:08:31;5.50;;;3.63;;
46455;SDS011;64052;47.466;9.094;2023-03-16T18:13:33;10.50;;;4.32;;
46455;SDS011;64052;47.466;9.094;2023-03-16T18:18:37;3.85;;;3.45;;
46455;SDS011;64052;47.466;9.094;2023-03-16T18:23:40;3.28;;;2.70;;
46455;SDS011;64052;47.466;9.094;2023-03-16T18:28:41;3.42;;;2.97;;
46455;SDS011;64052;47.466;9.094;2023-03-16T18:33:43;3.47;;;2.80;;
46455;SDS011;64052;47.466;9.094;2023-03-16T18:38:46;5.97;;;4.57;;
46455;SDS011;64052;47.466;9.094;2023-03-16T18:43:50;4.72;;;4.20;;
46455;SDS011;64052;47.466;9.094;2023-03-16T18:48:54;4.90;;;4.40;;
46455;SDS011;64052;47.466;9.094;2023-03-16T18:53:58;4.93;;;3.90;;
46455;SDS011;64052;47.466;9.094;2023-03-16T18:58:59;5.43;;;4.00;;
46455;SDS011;64052;47.466;9.094;2023-03-16T19:04:01;4.80;;;4.18;;
46455;SDS011;64052;47.466;9.094;2023-03-16T19:09:03;5.32;;;4.40;;
46455;SDS011;64052;47.466;9.094;2023-03-16T19:14:19;7.20;;;5.40;;
46455;SDS011;64052;47.466;9.094;2023-03-16T19:19:26;5.65;;;4.20;;
46455;SDS011;64052;47.466;9.094;2023-03-16T19:24:28;4.07;;;3.67;;
46455;SDS011;64052;47.466;9.094;2023-03-16T19:29:47;5.13;;;4.05;;
46455;SDS011;64052;47.466;9.094;2023-03-16T19:34:52;4.28;;;3.85;;
46455;SDS011;64052;47.466;9.094;2023-03-16T19:39:53;5.10;;;4.25;;
46455;SDS011;64052;47.466;9.094;2023-03-16T19:44:55;6.32;;;4.13;;
46455;SDS011;64052;47.466;9.094;2023-03-16T19:49:57;5.30;;;3.95;;
46455;SDS011;64052;47.466;9.094;2023-03-16T19:54:59;5.32;;;4.03;;
46455;SDS011;64052;47.466;9.094;2023-03-16T20:00:01;4.38;;;3.97;;
46455;SDS011;64052;47.466;9.094;2023-03-16T20:05:05;6.18;;;3.78;;
46455;SDS011;64052;47.466;9.094;2023-03-16T20:10:08;5.60;;;4.47;;
46455;SDS011;64052;47.466;9.094;2023-03-16T20:15:16;6.22;;;4.53;;
46455;SDS011;64052;47.466;9.094;2023-03-16T20:25:28;7.85;;;4.22;;
46455;SDS011;64052;47.466;9.094;2023-03-16T20:30:32;5.30;;;3.92;;
46455;SDS011;64052;47.466;9.094;2023-03-16T20:35:33;8.15;;;4.50;;
46455;SDS011;64052;47.466;9.094;2023-03-16T20:40:35;5.35;;;4.65;;
46455;SDS011;64052;47.466;9.094;2023-03-16T20:45:36;7.40;;;4.75;;
46455;SDS011;64052;47.466;9.094;2023-03-16T20:50:38;8.93;;;6.80;;
46455;SDS011;64052;47.466;9.094;2023-03-16T20:55:39;7.63;;;5.78;;
46455;SDS011;64052;47.466;9.094;2023-03-16T21:00:41;5.90;;;5.00;;
46455;SDS011;64052;47.466;9.094;2023-03-16T21:05:43;7.85;;;5.50;;
46455;SDS011;64052;47.466;9.094;2023-03-16T21:10:46;8.52;;;6.45;;
46455;SDS011;64052;47.466;9.094;2023-03-16T21:15:49;5.82;;;5.28;;
46455;SDS011;64052;47.466;9.094;2023-03-16T21:20:52;7.05;;;5.13;;
46455;SDS011;64052;47.466;9.094;2023-03-16T21:25:57;7.10;;;5.25;;
46455;SDS011;64052;47.466;9.094;2023-03-16T21:31:01;6.70;;;5.82;;
46455;SDS011;64052;47.466;9.094;2023-03-16T21:36:03;5.20;;;4.70;;
46455;SDS011;64052;47.466;9.094;2023-03-16T21:41:07;7.97;;;5.15;;
46455;SDS011;64052;47.466;9.094;2023-03-16T21:46:15;5.57;;;5.05;;
46455;SDS011;64052;47.466;9.094;2023-03-16T21:51:19;8.90;;;5.15;;
46455;SDS011;64052;47.466;9.094;2023-03-16T21:56:23;6.35;;;5.20;;
46455;SDS011;64052;47.466;9.094;2023-03-16T22:01:27;7.43;;;4.85;;
46455;SDS011;64052;47.466;9.094;2023-03-16T22:06:30;8.20;;;5.60;;
46455;SDS011;64052;47.466;9.094;2023-03-16T22:11:32;7.45;;;5.38;;
46455;SDS011;64052;47.466;9.094;2023-03-16T22:16:34;7.32;;;5.72;;
46455;SDS011;64052;47.466;9.094;2023-03-16T22:21:38;7.72;;;5.00;;
46455;SDS011;64052;47.466;9.094;2023-03-16T22:26:41;7.20;;;5.70;;
46455;SDS011;64052;47.466;9.094;2023-03-16T22:31:43;4.82;;;4.32;;
46455;SDS011;64052;47.466;9.094;2023-03-16T22:36:45;5.57;;;5.00;;
46455;SDS011;64052;47.466;9.094;2023-03-16T22:41:47;7.25;;;5.65;;
46455;SDS011;64052;47.466;9.094;2023-03-16T22:46:49;6.15;;;4.32;;
46455;SDS011;64052;47.466;9.094;2023-03-16T22:51:51;7.03;;;5.25;;
46455;SDS011;64052;47.466;9.094;2023-03-16T22:56:56;6.57;;;5.07;;
46455;SDS011;64052;47.466;9.094;2023-03-16T23:01:58;7.07;;;6.00;;
46455;SDS011;64052;47.466;9.094;2023-03-16T23:06:59;5.03;;;4.53;;
46455;SDS011;64052;47.466;9.094;2023-03-16T23:12:00;6.85;;;5.72;;
46455;SDS011;64052;47.466;9.094;2023-03-16T23:17:02;5.78;;;4.13;;
46455;SDS011;64052;47.466;9.094;2023-03-16T23:22:04;5.45;;;4.95;;
46455;SDS011;64052;47.466;9.094;2023-03-16T23:27:13;6.78;;;5.07;;
46455;SDS011;64052;47.466;9.094;2023-03-16T23:32:18;7.07;;;5.68;;
46455;SDS011;64052;47.466;9.094;2023-03-16T23:37:19;6.63;;;4.90;;
46455;SDS011;64052;47.466;9.094;2023-03-16T23:42:21;5.75;;;4.32;;
46455;SDS011;64052;47.466;9.094;2023-03-16T23:47:22;5.22;;;4.72;;
46455;SDS011;64052;47.466;9.094;2023-03-16T23:52:24;4.90;;;4.50;;
46455;SDS011;64052;47.466;9.094;2023-03-16T23:57:25;6.53;;;4.18;;
